sensor_id;sensor_type;location;lat;lon;timestamp;P1;durP1;ratioP1;P2;durP2;ratioP2
42944;SDS011;28584;42.636;23.294;2022-11-20T00:00:24;1999.90;;;999.90;;
42944;SDS011;28584;42.636;23.294;2022-11-20T00:02:49;1999.90;;;999.90;;
42944;SDS011;28584;42.636;23.294;2022-11-20T00:05:14;1999.90;;;999.90;;
42944;SDS011;28584;42.636;23.294;2022-11-20T00:07:40;1999.90;;;999.90;;
42944;SDS011;28584;42.636;23.294;2022-11-20T00:10:06;1999.90;;;999.90;;
42944;SDS011;28584;42.636;23.294;2022-11-20T00:12:31;1999.90;;;999.90;;
42944;SDS011;28584;42.636;23.294;2022-11-20T00:14:57;1999.90;;;999.90;;
42944;SDS011;28584;42.636;23.294;2022-11-20T00:17:22;1999.90;;;999.90;;
42944;SDS011;28584;42.636;23.294;2022-11-20T00:19:47;1999.90;;;999.90;;
42944;SDS011;28584;42.636;23.294;2022-11-20T00:22:13;1999.90;;;999.90;;
42944;SDS011;28584;42.636;23.294;2022-11-20T00:24:39;1999.90;;;999.90;;
42944;SDS011;28584;42.636;23.294;2022-11-20T00:27:04;1999.90;;;999.90;;
42944;SDS011;28584;42.636;23.294;2022-11-20T00:29:29;1999.90;;;999.90;;
42944;SDS011;28584;42.636;23.294;2022-11-20T00:31:55;1999.90;;;999.90;;
42944;SDS011;28584;42.636;23.294;2022-11-20T00:34:20;1999.90;;;999.90;;
42944;SDS011;28584;42.636;23.294;2022-11-20T00:36:45;1999.90;;;999.90;;
42944;SDS011;28584;42.636;23.294;2022-11-20T00:39:11;1999.90;;;999.90;;
42944;SDS011;28584;42.636;23.294;2022-11-20T00:41:36;1999.90;;;999.90;;
42944;SDS011;28584;42.636;23.294;2022-11-20T00:44:02;1999.90;;;999.90;;
42944;SDS011;28584;42.636;23.294;2022-11-20T00:46:27;1999.90;;;999.90;;
42944;SDS011;28584;42.636;23.294;2022-11-20T00:48:53;1999.90;;;999.90;;
42944;SDS011;28584;42.636;23.294;2022-11-20T00:51:20;1999.90;;;999.90;;
42944;SDS011;28584;42.636;23.294;2022-11-20T00:53:47;1999.90;;;999.90;;
42944;SDS011;28584;42.636;23.294;2022-11-20T00:56:13;1999.90;;;999.90;;
42944;SDS011;28584;42.636;23.294;2022-11-20T00:58:42;1999.90;;;999.90;;
42944;SDS011;28584;42.636;23.294;2022-11-20T01:01:10;1999.90;;;999.90;;
42944;SDS011;28584;42.636;23.294;2022-11-20T01:03:38;1999.90;;;999.90;;
42944;SDS011;28584;42.636;23.294;2022-11-20T01:06:12;1999.90;;;999.90;;
42944;SDS011;28584;42.636;23.294;2022-11-20T01:08:40;1999.90;;;999.90;;
42944;SDS011;28584;42.636;23.294;2022-11-20T01:11:07;1999.90;;;999.90;;
42944;SDS011;28584;42.636;23.294;2022-11-20T01:13:35;1999.90;;;999.90;;
42944;SDS011;28584;42.636;23.294;2022-11-20T01:18:29;1999.90;;;999.90;;
42944;SDS011;28584;42.636;23.294;2022-11-20T01:20:55;1999.90;;;999.90;;
42944;SDS011;28584;42.636;23.294;2022-11-20T01:23:20;1999.90;;;999.90;;
42944;SDS011;28584;42.636;23.294;2022-11-20T01:25:46;1999.90;;;999.90;;
42944;SDS011;28584;42.636;23.294;2022-11-20T01:28:11;1999.90;;;999.90;;
42944;SDS011;28584;42.636;23.294;2022-11-20T01:30:36;1999.90;;;999.90;;
42944;SDS011;28584;42.636;23.294;2022-11-20T01:33:02;1999.90;;;999.90;;
42944;SDS011;28584;42.636;23.294;2022-11-20T01:35:27;1999.90;;;999.90;;
42944;SDS011;28584;42.636;23.294;2022-11-20T01:37:52;1999.90;;;999.90;;
42944;SDS011;28584;42.636;23.294;2022-11-20T01:40:18;1999.90;;;999.90;;
42944;SDS011;28584;42.636;23.294;2022-11-20T01:42:52;1999.90;;;999.90;;
42944;SDS011;28584;42.636;23.294;2022-11-20T01:45:52;1999.90;;;999.90;;
42944;SDS011;28584;42.636;23.294;2022-11-20T01:48:21;1999.90;;;999.90;;
42944;SDS011;28584;42.636;23.294;2022-11-20T01:50:48;1999.90;;;999.90;;
42944;SDS011;28584;42.636;23.294;2022-11-20T01:53:16;1999.90;;;999.90;;
42944;SDS011;28584;42.636;23.294;2022-11-20T01:55:50;1999.90;;;999.90;;
42944;SDS011;28584;42.636;23.294;2022-11-20T01:58:22;1999.90;;;999.90;;
42944;SDS011;28584;42.636;23.294;2022-11-20T02:00:52;1999.90;;;999.90;;
42944;SDS011;28584;42.636;23.294;2022-11-20T02:03:18;1999.90;;;999.90;;
42944;SDS011;28584;42.636;23.294;2022-11-20T02:05:49;1999.90;;;999.90;;
42944;SDS011;28584;42.636;23.294;2022-11-20T02:08:20;1999.90;;;999.90;;
42944;SDS011;28584;42.636;23.294;2022-11-20T02:10:46;1999.90;;;999.90;;
42944;SDS011;28584;42.636;23.294;2022-11-20T02:13:12;1999.90;;;999.90;;
42944;SDS011;28584;42.636;23.294;2022-11-20T02:15:56;1999.90;;;999.90;;
42944;SDS011;28584;42.636;23.294;2022-11-20T02:18:21;1999.90;;;999.90;;
42944;SDS011;28584;42.636;23.294;2022-11-20T02:20:49;1999.90;;;999.90;;
42944;SDS011;28584;42.636;23.294;2022-11-20T02:26:26;1999.90;;;999.90;;
42944;SDS011;28584;42.636;23.294;2022-11-20T02:28:54;1999.90;;;999.90;;
42944;SDS011;28584;42.636;23.294;2022-11-20T02:31:19;1999.90;;;999.90;;
42944;SDS011;28584;42.636;23.294;2022-11-20T02:33:45;1999.90;;;999.90;;
42944;SDS011;28584;42.636;23.294;2022-11-20T02:36:11;1999.90;;;999.90;;
42944;SDS011;28584;42.636;23.294;2022-11-20T02:38:41;1999.90;;;999.90;;
42944;SDS011;28584;42.636;23.294;2022-11-20T02:41:08;1999.90;;;999.90;;
42944;SDS011;28584;42.636;23.294;2022-11-20T02:43:33;1999.90;;;999.90;;
42944;SDS011;28584;42.636;23.294;2022-11-20T02:45:58;1999.90;;;999.90;;
42944;SDS011;28584;42.636;23.294;2022-11-20T02:48:24;1999.90;;;999.90;;
42944;SDS011;28584;42.636;23.294;2022-11-20T02:50:49;1999.90;;;999.90;;
42944;SDS011;28584;42.636;23.294;2022-11-20T02:53:14;1999.90;;;999.90;;
42944;SDS011;28584;42.636;23.294;2022-11-20T02:55:40;1999.90;;;999.90;;
42944;SDS011;28584;42.636;23.294;2022-11-20T02:58:05;1999.90;;;999.90;;
42944;SDS011;28584;42.636;23.294;2022-11-20T03:00:31;1999.90;;;999.90;;
42944;SDS011;28584;42.636;23.294;2022-11-20T03:02:57;1999.90;;;999.90;;
42944;SDS011;28584;42.636;23.294;2022-11-20T03:05:22;1999.90;;;999.90;;
42944;SDS011;28584;42.636;23.294;2022-11-20T03:07:47;1999.90;;;999.90;;
42944;SDS011;28584;42.636;23.294;2022-11-20T03:10:13;1999.90;;;999.90;;
42944;SDS011;28584;42.636;23.294;2022-11-20T03:12:38;1999.90;;;999.90;;
42944;SDS011;28584;42.636;23.294;2022-11-20T03:15:04;1999.90;;;999.90;;
42944;SDS011;28584;42.636;23.294;2022-11-20T03:17:30;1999.90;;;999.90;;
42944;SDS011;28584;42.636;23.294;2022-11-20T03:19:55;1999.90;;;999.90;;
42944;SDS011;28584;42.636;23.294;2022-11-20T03:22:21;1999.90;;;999.90;;
42944;SDS011;28584;42.636;23.294;2022-11-20T03:24:46;1999.90;;;999.90;;
42944;SDS011;28584;42.636;23.294;2022-11-20T03:27:12;1999.90;;;999.90;;
42944;SDS011;28584;42.636;23.294;2022-11-20T03:29:37;1999.90;;;999.90;;
42944;SDS011;28584;42.636;23.294;2022-11-20T03:32:03;1999.90;;;999.90;;
42944;SDS011;28584;42.636;23.294;2022-11-20T03:34:28;1999.90;;;999.90;;
42944;SDS011;28584;42.636;23.294;2022-11-20T03:36:53;1999.90;;;999.90;;
42944;SDS011;28584;42.636;23.294;2022-11-20T03:39:19;1999.90;;;999.90;;
42944;SDS011;28584;42.636;23.294;2022-11-20T03:41:44;1999.90;;;999.90;;
42944;SDS011;28584;42.636;23.294;2022-11-20T03:44:10;1999.90;;;999.90;;
42944;SDS011;28584;42.636;23.294;2022-11-20T03:46:37;1999.90;;;999.90;;
42944;SDS011;28584;42.636;23.294;2022-11-20T03:49:03;1999.90;;;999.90;;
42944;SDS011;28584;42.636;23.294;2022-11-20T03:51:30;1999.90;;;999.90;;
42944;SDS011;28584;42.636;23.294;2022-11-20T03:53:59;1999.90;;;999.90;;
42944;SDS011;28584;42.636;23.294;2022-11-20T03:56:27;1999.90;;;999.90;;
42944;SDS011;28584;42.636;23.294;2022-11-20T03:58:55;1999.90;;;999.90;;
42944;SDS011;28584;42.636;23.294;2022-11-20T04:01:22;1999.90;;;999.90;;
42944;SDS011;28584;42.636;23.294;2022-11-20T04:03:51;1999.90;;;999.90;;
42944;SDS011;28584;42.636;23.294;2022-11-20T04:06:21;1999.90;;;999.90;;
42944;SDS011;28584;42.636;23.294;2022-11-20T04:08:51;1999.90;;;999.90;;
42944;SDS011;28584;42.636;23.294;2022-11-20T04:11:21;1999.90;;;999.90;;
42944;SDS011;28584;42.636;23.294;2022-11-20T04:13:49;1999.90;;;999.90;;
42944;SDS011;28584;42.636;23.294;2022-11-20T04:16:16;1999.90;;;999.90;;
42944;SDS011;28584;42.636;23.294;2022-11-20T04:18:43;1999.90;;;999.90;;
42944;SDS011;28584;42.636;23.294;2022-11-20T04:21:08;1999.90;;;999.90;;
42944;SDS011;28584;42.636;23.294;2022-11-20T04:23:34;1999.90;;;999.90;;
42944;SDS011;28584;42.636;23.294;2022-11-20T04:26:00;1999.90;;;999.90;;
42944;SDS011;28584;42.636;23.294;2022-11-20T04:28:27;1999.90;;;999.90;;
42944;SDS011;28584;42.636;23.294;2022-11-20T04:30:53;1999.90;;;999.90;;
42944;SDS011;28584;42.636;23.294;2022-11-20T04:33:18;1999.90;;;999.90;;
42944;SDS011;28584;42.636;23.294;2022-11-20T04:35:43;1999.90;;;999.90;;
42944;SDS011;28584;42.636;23.294;2022-11-20T04:38:12;1999.90;;;999.90;;
42944;SDS011;28584;42.636;23.294;2022-11-20T04:40:37;1999.90;;;999.90;;
42944;SDS011;28584;42.636;23.294;2022-11-20T04:43:03;1999.90;;;999.90;;
42944;SDS011;28584;42.636;23.294;2022-11-20T04:45:28;1999.90;;;999.90;;
42944;SDS011;28584;42.636;23.294;2022-11-20T04:47:53;1999.90;;;999.90;;
42944;SDS011;28584;42.636;23.294;2022-11-20T04:50:19;1999.90;;;999.90;;
42944;SDS011;28584;42.636;23.294;2022-11-20T04:52:44;1999.90;;;999.90;;
42944;SDS011;28584;42.636;23.294;2022-11-20T04:55:09;1999.90;;;999.90;;
42944;SDS011;28584;42.636;23.294;2022-11-20T04:57:35;1999.90;;;999.90;;
42944;SDS011;28584;42.636;23.294;2022-11-20T05:00:00;1999.90;;;999.90;;
42944;SDS011;28584;42.636;23.294;2022-11-20T05:02:26;1999.90;;;999.90;;
42944;SDS011;28584;42.636;23.294;2022-11-20T05:04:51;1999.90;;;999.90;;
42944;SDS011;28584;42.636;23.294;2022-11-20T05:07:16;1999.90;;;999.90;;
42944;SDS011;28584;42.636;23.294;2022-11-20T05:09:42;1999.90;;;999.90;;
42944;SDS011;28584;42.636;23.294;2022-11-20T05:12:08;1999.90;;;999.90;;
42944;SDS011;28584;42.636;23.294;2022-11-20T05:14:34;1999.90;;;999.90;;
42944;SDS011;28584;42.636;23.294;2022-11-20T05:16:59;1999.90;;;999.90;;
42944;SDS011;28584;42.636;23.294;2022-11-20T05:19:25;1999.90;;;999.90;;
42944;SDS011;28584;42.636;23.294;2022-11-20T05:21:50;1999.90;;;999.90;;
42944;SDS011;28584;42.636;23.294;2022-11-20T05:24:15;1999.90;;;999.90;;
42944;SDS011;28584;42.636;23.294;2022-11-20T05:26:41;1999.90;;;999.90;;
42944;SDS011;28584;42.636;23.294;2022-11-20T05:29:06;1999.90;;;999.90;;
42944;SDS011;28584;42.636;23.294;2022-11-20T05:31:31;1999.90;;;999.90;;
42944;SDS011;28584;42.636;23.294;2022-11-20T05:33:57;1999.90;;;999.90;;
42944;SDS011;28584;42.636;23.294;2022-11-20T05:36:23;1999.90;;;999.90;;
42944;SDS011;28584;42.636;23.294;2022-11-20T05:38:49;1999.90;;;999.90;;
42944;SDS011;28584;42.636;23.294;2022-11-20T05:41:15;1999.90;;;999.90;;
42944;SDS011;28584;42.636;23.294;2022-11-20T05:43:44;1999.90;;;999.90;;
42944;SDS011;28584;42.636;23.294;2022-11-20T05:46:12;1999.90;;;999.90;;
42944;SDS011;28584;42.636;23.294;2022-11-20T05:48:39;1999.90;;;999.90;;
42944;SDS011;28584;42.636;23.294;2022-11-20T05:51:06;1999.90;;;999.90;;
42944;SDS011;28584;42.636;23.294;2022-11-20T05:53:34;1999.90;;;999.90;;
42944;SDS011;28584;42.636;23.294;2022-11-20T05:56:06;1999.90;;;999.90;;
42944;SDS011;28584;42.636;23.294;2022-11-20T05:58:35;1999.90;;;999.90;;
42944;SDS011;28584;42.636;23.294;2022-11-20T06:03:36;1999.90;;;999.90;;
42944;SDS011;28584;42.636;23.294;2022-11-20T06:06:02;1999.90;;;999.90;;
42944;SDS011;28584;42.636;23.294;2022-11-20T06:08:29;1999.90;;;999.90;;
42944;SDS011;28584;42.636;23.294;2022-11-20T06:10:54;1999.90;;;999.90;;
42944;SDS011;28584;42.636;23.294;2022-11-20T06:13:20;1999.90;;;999.90;;
42944;SDS011;28584;42.636;23.294;2022-11-20T06:15:52;1999.90;;;999.90;;
42944;SDS011;28584;42.636;23.294;2022-11-20T06:18:18;1999.90;;;999.90;;
42944;SDS011;28584;42.636;23.294;2022-11-20T06:20:44;1999.90;;;999.90;;
42944;SDS011;28584;42.636;23.294;2022-11-20T06:23:10;1999.90;;;999.90;;
42944;SDS011;28584;42.636;23.294;2022-11-20T06:25:39;1999.90;;;999.90;;
42944;SDS011;28584;42.636;23.294;2022-11-20T06:28:05;1999.90;;;999.90;;
42944;SDS011;28584;42.636;23.294;2022-11-20T06:30:31;1999.90;;;999.90;;
42944;SDS011;28584;42.636;23.294;2022-11-20T06:32:56;1999.90;;;999.90;;
42944;SDS011;28584;42.636;23.294;2022-11-20T06:35:22;1999.90;;;999.90;;
42944;SDS011;28584;42.636;23.294;2022-11-20T06:37:47;1999.90;;;999.90;;
42944;SDS011;28584;42.636;23.294;2022-11-20T06:40:12;1999.90;;;999.90;;
42944;SDS011;28584;42.636;23.294;2022-11-20T06:42:38;1999.90;;;999.90;;
42944;SDS011;28584;42.636;23.294;2022-11-20T06:45:03;1999.90;;;999.90;;
42944;SDS011;28584;42.636;23.294;2022-11-20T06:47:29;1999.90;;;999.90;;
42944;SDS011;28584;42.636;23.294;2022-11-20T06:49:54;1999.90;;;999.90;;
42944;SDS011;28584;42.636;23.294;2022-11-20T06:52:20;1999.90;;;999.90;;
42944;SDS011;28584;42.636;23.294;2022-11-20T06:54:45;1999.90;;;999.90;;
42944;SDS011;28584;42.636;23.294;2022-11-20T06:57:11;1999.90;;;999.90;;
42944;SDS011;28584;42.636;23.294;2022-11-20T06:59:36;1999.90;;;999.90;;
42944;SDS011;28584;42.636;23.294;2022-11-20T07:02:02;1999.90;;;999.90;;
42944;SDS011;28584;42.636;23.294;2022-11-20T07:04:27;1999.90;;;999.90;;
42944;SDS011;28584;42.636;23.294;2022-11-20T07:06:52;1999.90;;;999.90;;
42944;SDS011;28584;42.636;23.294;2022-11-20T07:09:18;1999.90;;;999.90;;
42944;SDS011;28584;42.636;23.294;2022-11-20T07:11:43;1999.90;;;999.90;;
42944;SDS011;28584;42.636;23.294;2022-11-20T07:14:08;1999.90;;;999.90;;
42944;SDS011;28584;42.636;23.294;2022-11-20T07:16:34;1999.90;;;999.90;;
42944;SDS011;28584;42.636;23.294;2022-11-20T07:18:59;1999.90;;;999.90;;
42944;SDS011;28584;42.636;23.294;2022-11-20T07:21:24;1999.90;;;999.90;;
42944;SDS011;28584;42.636;23.294;2022-11-20T07:23:50;1999.90;;;999.90;;
42944;SDS011;28584;42.636;23.294;2022-11-20T07:26:15;1999.90;;;999.90;;
42944;SDS011;28584;42.636;23.294;2022-11-20T07:28:43;1999.90;;;999.90;;
42944;SDS011;28584;42.636;23.294;2022-11-20T07:31:09;1999.90;;;999.90;;
42944;SDS011;28584;42.636;23.294;2022-11-20T07:33:34;1999.90;;;999.90;;
42944;SDS011;28584;42.636;23.294;2022-11-20T07:36:00;1999.90;;;999.90;;
42944;SDS011;28584;42.636;23.294;2022-11-20T07:38:26;1999.90;;;999.90;;
42944;SDS011;28584;42.636;23.294;2022-11-20T07:40:55;1999.90;;;999.90;;
42944;SDS011;28584;42.636;23.294;2022-11-20T07:43:26;1999.90;;;999.90;;
42944;SDS011;28584;42.636;23.294;2022-11-20T07:45:52;1999.90;;;999.90;;
42944;SDS011;28584;42.636;23.294;2022-11-20T07:48:20;1999.90;;;999.90;;
42944;SDS011;28584;42.636;23.294;2022-11-20T07:50:45;1999.90;;;999.90;;
42944;SDS011;28584;42.636;23.294;2022-11-20T07:53:11;1999.90;;;999.90;;
42944;SDS011;28584;42.636;23.294;2022-11-20T07:55:37;1999.90;;;999.90;;
42944;SDS011;28584;42.636;23.294;2022-11-20T07:58:03;1999.90;;;999.90;;
42944;SDS011;28584;42.636;23.294;2022-11-20T08:00:28;1999.90;;;999.90;;
42944;SDS011;28584;42.636;23.294;2022-11-20T08:02:53;1999.90;;;999.90;;
42944;SDS011;28584;42.636;23.294;2022-11-20T08:05:19;1999.90;;;999.90;;
42944;SDS011;28584;42.636;23.294;2022-11-20T08:07:44;1999.90;;;999.90;;
42944;SDS011;28584;42.636;23.294;2022-11-20T08:10:10;1999.90;;;999.90;;
42944;SDS011;28584;42.636;23.294;2022-11-20T08:12:45;1999.90;;;999.90;;
42944;SDS011;28584;42.636;23.294;2022-11-20T08:15:30;1999.90;;;999.90;;
42944;SDS011;28584;42.636;23.294;2022-11-20T08:18:15;1999.90;;;999.90;;
42944;SDS011;28584;42.636;23.294;2022-11-20T08:20:40;1999.90;;;999.90;;
42944;SDS011;28584;42.636;23.294;2022-11-20T08:23:06;1999.90;;;999.90;;
42944;SDS011;28584;42.636;23.294;2022-11-20T08:25:33;1999.90;;;999.90;;
42944;SDS011;28584;42.636;23.294;2022-11-20T08:28:00;1999.90;;;999.90;;
42944;SDS011;28584;42.636;23.294;2022-11-20T08:30:28;1999.90;;;999.90;;
42944;SDS011;28584;42.636;23.294;2022-11-20T08:32:54;1999.90;;;999.90;;
42944;SDS011;28584;42.636;23.294;2022-11-20T08:35:20;1999.90;;;999.90;;
42944;SDS011;28584;42.636;23.294;2022-11-20T08:37:47;1999.90;;;999.90;;
42944;SDS011;28584;42.636;23.294;2022-11-20T08:40:12;1999.90;;;999.90;;
42944;SDS011;28584;42.636;23.294;2022-11-20T08:42:45;1999.90;;;999.90;;
42944;SDS011;28584;42.636;23.294;2022-11-20T08:45:11;1999.90;;;999.90;;
42944;SDS011;28584;42.636;23.294;2022-11-20T08:47:37;1999.90;;;999.90;;
42944;SDS011;28584;42.636;23.294;2022-11-20T08:50:02;1999.90;;;999.90;;
42944;SDS011;28584;42.636;23.294;2022-11-20T08:52:28;1999.90;;;999.90;;
42944;SDS011;28584;42.636;23.294;2022-11-20T08:54:53;1999.90;;;999.90;;
42944;SDS011;28584;42.636;23.294;2022-11-20T08:57:19;1999.90;;;999.90;;
42944;SDS011;28584;42.636;23.294;2022-11-20T08:59:44;1999.90;;;999.90;;
42944;SDS011;28584;42.636;23.294;2022-11-20T09:02:09;1999.90;;;999.90;;
42944;SDS011;28584;42.636;23.294;2022-11-20T09:04:35;1999.90;;;999.90;;
42944;SDS011;28584;42.636;23.294;2022-11-20T09:07:00;1999.90;;;999.90;;
42944;SDS011;28584;42.636;23.294;2022-11-20T09:09:25;1999.90;;;999.90;;
42944;SDS011;28584;42.636;23.294;2022-11-20T09:11:51;1999.90;;;999.90;;
42944;SDS011;28584;42.636;23.294;2022-11-20T09:14:16;1999.90;;;999.90;;
42944;SDS011;28584;42.636;23.294;2022-11-20T09:16:42;1999.90;;;999.90;;
42944;SDS011;28584;42.636;23.294;2022-11-20T09:19:07;1999.90;;;999.90;;
42944;SDS011;28584;42.636;23.294;2022-11-20T09:21:32;1999.90;;;999.90;;
42944;SDS011;28584;42.636;23.294;2022-11-20T09:23:58;1999.90;;;999.90;;
42944;SDS011;28584;42.636;23.294;2022-11-20T09:26:23;1999.90;;;999.90;;
42944;SDS011;28584;42.636;23.294;2022-11-20T09:28:48;1534.07;;;763.42;;
42944;SDS011;28584;42.636;23.294;2022-11-20T09:31:19;1612.28;;;805.95;;
42944;SDS011;28584;42.636;23.294;2022-11-20T09:33:48;1618.97;;;817.40;;
42944;SDS011;28584;42.636;23.294;2022-11-20T09:36:13;417.90;;;221.82;;
42944;SDS011;28584;42.636;23.294;2022-11-20T09:38:39;636.17;;;362.55;;
42944;SDS011;28584;42.636;23.294;2022-11-20T09:41:06;630.22;;;361.88;;
42944;SDS011;28584;42.636;23.294;2022-11-20T09:43:50;1594.38;;;791.08;;
42944;SDS011;28584;42.636;23.294;2022-11-20T09:46:19;381.77;;;206.82;;
42944;SDS011;28584;42.636;23.294;2022-11-20T09:54:54;1999.90;;;999.90;;
42944;SDS011;28584;42.636;23.294;2022-11-20T09:57:21;1999.90;;;999.90;;
42944;SDS011;28584;42.636;23.294;2022-11-20T09:59:51;1999.90;;;999.90;;
42944;SDS011;28584;42.636;23.294;2022-11-20T10:02:28;1999.90;;;999.90;;
42944;SDS011;28584;42.636;23.294;2022-11-20T10:05:15;1999.90;;;999.90;;
42944;SDS011;28584;42.636;23.294;2022-11-20T10:07:48;1999.90;;;999.90;;
42944;SDS011;28584;42.636;23.294;2022-11-20T10:10:31;1999.90;;;999.90;;
42944;SDS011;28584;42.636;23.294;2022-11-20T10:18:47;1999.90;;;999.90;;
42944;SDS011;28584;42.636;23.294;2022-11-20T10:26:58;1999.90;;;999.90;;
42944;SDS011;28584;42.636;23.294;2022-11-20T10:29:41;1999.90;;;999.90;;
42944;SDS011;28584;42.636;23.294;2022-11-20T10:32:15;1999.90;;;999.90;;
42944;SDS011;28584;42.636;23.294;2022-11-20T10:37:23;1999.90;;;999.90;;
42944;SDS011;28584;42.636;23.294;2022-11-20T10:39:58;1999.90;;;999.90;;
42944;SDS011;28584;42.636;23.294;2022-11-20T10:42:42;1999.90;;;999.90;;
42944;SDS011;28584;42.636;23.294;2022-11-20T10:47:49;1649.45;;;825.97;;
42944;SDS011;28584;42.636;23.294;2022-11-20T10:50:18;602.95;;;393.77;;
42944;SDS011;28584;42.636;23.294;2022-11-20T10:55:50;727.30;;;597.58;;
42944;SDS011;28584;42.636;23.294;2022-11-20T11:01:16;829.63;;;693.00;;
42944;SDS011;28584;42.636;23.294;2022-11-20T11:03:43;923.33;;;747.72;;
42944;SDS011;28584;42.636;23.294;2022-11-20T11:06:19;1204.05;;;866.13;;
42944;SDS011;28584;42.636;23.294;2022-11-20T11:08:53;1339.40;;;921.75;;
42944;SDS011;28584;42.636;23.294;2022-11-20T11:11:24;1279.15;;;898.92;;
42944;SDS011;28584;42.636;23.294;2022-11-20T11:13:53;640.78;;;522.08;;
42944;SDS011;28584;42.636;23.294;2022-11-20T11:16:30;459.67;;;388.63;;
42944;SDS011;28584;42.636;23.294;2022-11-20T11:19:05;1593.00;;;822.83;;
42944;SDS011;28584;42.636;23.294;2022-11-20T11:21:37;1553.00;;;775.70;;
42944;SDS011;28584;42.636;23.294;2022-11-20T11:24:14;1999.90;;;999.90;;
42944;SDS011;28584;42.636;23.294;2022-11-20T11:27:18;1999.90;;;999.90;;
42944;SDS011;28584;42.636;23.294;2022-11-20T11:29:38;1999.90;;;999.90;;
42944;SDS011;28584;42.636;23.294;2022-11-20T11:32:05;1999.90;;;999.90;;
42944;SDS011;28584;42.636;23.294;2022-11-20T11:34:37;1512.43;;;757.45;;
42944;SDS011;28584;42.636;23.294;2022-11-20T11:37:02;1999.90;;;999.90;;
42944;SDS011;28584;42.636;23.294;2022-11-20T11:39:30;1999.90;;;999.90;;
42944;SDS011;28584;42.636;23.294;2022-11-20T11:41:58;1185.75;;;545.90;;
42944;SDS011;28584;42.636;23.294;2022-11-20T11:44:29;1999.90;;;999.90;;
42944;SDS011;28584;42.636;23.294;2022-11-20T11:47:37;1080.28;;;520.40;;
42944;SDS011;28584;42.636;23.294;2022-11-20T11:52:36;1999.90;;;999.90;;
42944;SDS011;28584;42.636;23.294;2022-11-20T11:55:09;1999.90;;;999.90;;
42944;SDS011;28584;42.636;23.294;2022-11-20T12:00:24;1999.90;;;999.90;;
42944;SDS011;28584;42.636;23.294;2022-11-20T12:03:00;1999.90;;;999.90;;
42944;SDS011;28584;42.636;23.294;2022-11-20T12:05:40;1999.90;;;999.90;;
42944;SDS011;28584;42.636;23.294;2022-11-20T12:14:17;1516.93;;;757.90;;
42944;SDS011;28584;42.636;23.294;2022-11-20T12:16:44;1999.90;;;999.90;;
42944;SDS011;28584;42.636;23.294;2022-11-20T12:19:12;1999.90;;;999.90;;
42944;SDS011;28584;42.636;23.294;2022-11-20T12:32:16;1999.90;;;999.90;;
42944;SDS011;28584;42.636;23.294;2022-11-20T12:35:32;1999.90;;;999.90;;
42944;SDS011;28584;42.636;23.294;2022-11-20T12:44:13;1999.90;;;999.90;;
42944;SDS011;28584;42.636;23.294;2022-11-20T12:47:08;1999.90;;;999.90;;
42944;SDS011;28584;42.636;23.294;2022-11-20T12:55:35;1999.90;;;999.90;;
42944;SDS011;28584;42.636;23.294;2022-11-20T12:58:12;1999.90;;;999.90;;
42944;SDS011;28584;42.636;23.294;2022-11-20T13:01:00;1999.90;;;999.90;;
42944;SDS011;28584;42.636;23.294;2022-11-20T13:03:44;1999.90;;;999.90;;
42944;SDS011;28584;42.636;23.294;2022-11-20T13:06:19;1999.90;;;999.90;;
42944;SDS011;28584;42.636;23.294;2022-11-20T13:08:54;1999.90;;;999.90;;
42944;SDS011;28584;42.636;23.294;2022-11-20T13:11:34;1999.90;;;999.90;;
42944;SDS011;28584;42.636;23.294;2022-11-20T13:19:38;1999.90;;;999.90;;
42944;SDS011;28584;42.636;23.294;2022-11-20T13:22:04;1999.90;;;999.90;;
42944;SDS011;28584;42.636;23.294;2022-11-20T13:24:30;1565.90;;;797.70;;
42944;SDS011;28584;42.636;23.294;2022-11-20T13:27:03;1999.90;;;999.90;;
42944;SDS011;28584;42.636;23.294;2022-11-20T13:29:33;1577.82;;;807.25;;
42944;SDS011;28584;42.636;23.294;2022-11-20T13:32:06;1554.75;;;782.72;;
42944;SDS011;28584;42.636;23.294;2022-11-20T13:34:54;1999.90;;;999.90;;
42944;SDS011;28584;42.636;23.294;2022-11-20T13:37:25;1999.90;;;999.90;;
42944;SDS011;28584;42.636;23.294;2022-11-20T13:42:35;1999.90;;;999.90;;
42944;SDS011;28584;42.636;23.294;2022-11-20T13:45:08;1999.90;;;999.90;;
42944;SDS011;28584;42.636;23.294;2022-11-20T13:47:36;1999.90;;;999.90;;
42944;SDS011;28584;42.636;23.294;2022-11-20T13:50:03;1565.40;;;796.53;;
42944;SDS011;28584;42.636;23.294;2022-11-20T13:55:17;1567.93;;;804.50;;
42944;SDS011;28584;42.636;23.294;2022-11-20T13:58:21;231.00;;;167.30;;
42944;SDS011;28584;42.636;23.294;2022-11-20T14:01:01;291.55;;;244.85;;
42944;SDS011;28584;42.636;23.294;2022-11-20T14:03:34;284.23;;;238.60;;
42944;SDS011;28584;42.636;23.294;2022-11-20T14:06:01;427.88;;;380.83;;
42944;SDS011;28584;42.636;23.294;2022-11-20T14:11:14;1563.10;;;799.65;;
42944;SDS011;28584;42.636;23.294;2022-11-20T14:13:39;1561.53;;;803.50;;
42944;SDS011;28584;42.636;23.294;2022-11-20T14:16:21;237.73;;;195.02;;
42944;SDS011;28584;42.636;23.294;2022-11-20T14:18:48;286.75;;;231.00;;
42944;SDS011;28584;42.636;23.294;2022-11-20T14:21:27;394.15;;;350.13;;
42944;SDS011;28584;42.636;23.294;2022-11-20T14:24:06;358.33;;;306.15;;
42944;SDS011;28584;42.636;23.294;2022-11-20T14:26:35;414.30;;;361.75;;
42944;SDS011;28584;42.636;23.294;2022-11-20T14:29:02;461.02;;;412.48;;
42944;SDS011;28584;42.636;23.294;2022-11-20T14:31:28;496.38;;;445.88;;
42944;SDS011;28584;42.636;23.294;2022-11-20T14:33:53;391.48;;;350.30;;
42944;SDS011;28584;42.636;23.294;2022-11-20T14:36:20;415.25;;;371.05;;
42944;SDS011;28584;42.636;23.294;2022-11-20T14:38:48;378.08;;;339.52;;
42944;SDS011;28584;42.636;23.294;2022-11-20T14:41:22;466.83;;;418.08;;
42944;SDS011;28584;42.636;23.294;2022-11-20T14:43:58;420.58;;;376.40;;
42944;SDS011;28584;42.636;23.294;2022-11-20T14:46:25;420.27;;;377.75;;
42944;SDS011;28584;42.636;23.294;2022-11-20T14:48:56;446.02;;;399.08;;
42944;SDS011;28584;42.636;23.294;2022-11-20T14:56:38;224.85;;;164.07;;
42944;SDS011;28584;42.636;23.294;2022-11-20T14:59:03;1550.95;;;789.20;;
42944;SDS011;28584;42.636;23.294;2022-11-20T15:01:29;1568.18;;;808.53;;
42944;SDS011;28584;42.636;23.294;2022-11-20T15:04:00;170.50;;;132.45;;
42944;SDS011;28584;42.636;23.294;2022-11-20T15:06:34;1552.82;;;788.60;;
42944;SDS011;28584;42.636;23.294;2022-11-20T15:09:02;1548.95;;;781.40;;
42944;SDS011;28584;42.636;23.294;2022-11-20T15:11:29;1545.45;;;787.28;;